九州TAF電文


北九州(RJFR)
7/19 16h
TAF AMD RJFR 190729Z 1907/2012 03006KT 9999 FEW030 SCT040 BECMG
1908/1910 22005KT=

福岡(RJFF)
7/19 15h
TAF AMD RJFF 190640Z 1906/2012 19015KT 9999 FEW030 BKN040
BECMG 2003/2006 30010KT
BECMG 2009/2012 16008KT=

佐賀(RJFS)
7/19 14h
TAF RJFS 190506Z 1906/2012 18011KT 9999 FEW020 SCT030 TEMPO
1906/1908 4000 SHRA BR TEMPO 1915/1921 4000 SHRA BR=

大分(RJFO)
7/19 14h
TAF RJFO 190508Z 1906/2012 06007KT 9999 FEW015 BKN035 BECMG
1908/1910 26003KT=

長崎(RJFU)
7/19 14h
TAF RJFU 190506Z 1906/2012 21012KT 9999 -SHRA FEW010 SCT020 BKN030
TEMPO 1915/1921 4000 SHRA BR=

熊本(RJFT)
7/19 14h
TAF RJFT 190506Z 1906/2012 23011KT 8000 -SHRA FEW005 SCT010 BKN015
TEMPO 1906/1908 4000 SHRA BR TEMPO 1915/1921 4000 SHRA BR=

宮崎(RJFM)
7/19 14h
TAF RJFM 190508Z 1906/2012 25013KT 9999 FEW020 SCT040 BECMG
2000/2003 13006KT BECMG 2009/2012 28005KT=

鹿児島(RJFK)
7/19 14h
TAF RJFK 190508Z 1906/2012 25009KT 9999 FEW020 SCT030=

那覇(ROAH)
7/19 14h
TAF ROAH 190511Z 1906/2012 14008KT 9999 FEW015 SCT025 TEMPO
1906/1909 4000 TSRA FEW010 BKN020 FEW025CB TEMPO 1915/1918
4000 SHRA FEW010 BKN020 FEW025CB=

石垣(ROIG)
7/19 14h
TAF ROIG 190511Z 1906/2012 14008KT 9999 FEW015 BKN025 BECMG
1908/1910 11006KT TEMPO 1912/1915 4000 SHRA FEW010 BKN020
FEW025CB BECMG 1914/1916 15008KT=
Copyright(c) 2014 International Meteorological & Oceanographic Consultants Co,.Ltd. All Rights Reserved. Design by http://f-tpl.com